Flight Track Log - Related Links

Times and Time Zones

All times are in EDT time to prevent confusion due to time zone crossing. See the UPS1075 flight status page for this flight to view local times or setup timezone preferences in your user account.

Time Position Orientation Groundspeed Altitude Reporting Facility
EDT Latitude Longitude Course Direction KTS MPH feet Rate Location/Type
Tue 10:42:21 PM 40.6722 -74.1774 207° Southwest 172 198 1,100  Level FlightAware ADS-B
Tue 10:42:33 PM 40.6621 -74.1766 177° South 182 209 1,700 2,889 Climbing FlightAware ADS-B
Tue 10:42:48 PM 40.6494 -74.1754 176° South 189 217 2,400 2,118 Climbing FlightAware ADS-B
Tue 10:43:07 PM 40.6316 -74.1751 179° South 215 247 2,900 1,565 Climbing FlightAware ADS-B
Tue 10:43:11 PM 40.6278 -74.1763 193° South 216 249 3,000 1,714 Climbing FlightAware ADS-B
Tue 10:43:14 PM 40.6250 -74.1778 202° Southwest 217 250 3,100 2,571 Climbing FlightAware ADS-B
Tue 10:43:18 PM 40.6216 -74.1802 208° Southwest 219 252 3,300 2,571 Climbing FlightAware ADS-B
Tue 10:43:21 PM 40.6189 -74.1830 218° Southwest 222 255 3,400 1,714 Climbing FlightAware ADS-B
Tue 10:43:25 PM 40.6163 -74.1864 225° Southwest 224 258 3,500 1,500 Climbing FlightAware ADS-B
Tue 10:43:29 PM 40.6139 -74.1906 233° Southwest 227 261 3,600 2,250 Climbing FlightAware ADS-B
Tue 10:43:33 PM 40.6118 -74.1958 242° Southwest 231 266 3,800 2,182 Climbing FlightAware ADS-B
Tue 10:43:40 PM 40.6095 -74.2065 254° West 238 274 4,000 2,000 Climbing FlightAware ADS-B
Tue 10:43:54 PM 40.6110 -74.2264 276° West 245 282 4,500 2,444 Climbing FlightAware ADS-B
Tue 10:44:07 PM 40.6187 -74.2424 302° West 251 289 5,100 3,000 Climbing FlightAware ADS-B
Tue 10:44:12 PM 40.6237 -74.2481 319° Northwest 254 292 5,400 3,000 Climbing FlightAware ADS-B
Tue 10:44:17 PM 40.6281 -74.2521 325° Northwest 255 293 5,600 3,000 Climbing FlightAware ADS-B
Tue 10:44:24 PM 40.6348 -74.2575 329° Northwest 258 297 6,000 3,273 Climbing FlightAware ADS-B
Tue 10:44:39 PM 40.6510 -74.2694 331° Northwest 264 304 6,800 3,000 Climbing FlightAware ADS-B
Tue 10:44:40 PM 40.6523 -74.2704 330° Northwest 261 300 6,800 2,400 Level FlightAware ADS-B
Tue 10:44:44 PM 40.6567 -74.2738 330° Northwest 265 305 7,000 3,000 Climbing FlightAware ADS-B
Tue 10:45:00 PM 40.6729 -74.2870 328° Northwest 270 311 7,800 3,000 Climbing FlightAware ADS-B
Tue 10:45:08 PM 40.6815 -74.2944 327° Northwest 272 313 8,200 2,800 Climbing FlightAware ADS-B
Tue 10:45:15 PM 40.6888 -74.3005 328° Northwest 274 315 8,500 2,727 Climbing FlightAware ADS-B
Tue 10:45:30 PM 40.7049 -74.3144 327° Northwest 279 321 9,200 2,880 Climbing FlightAware ADS-B
Tue 10:45:40 PM 40.7159 -74.3240 327° Northwest 282 325 9,700 3,000 Climbing FlightAware ADS-B
Tue 10:45:46 PM 40.7220 -74.3294 326° Northwest 282 325 10,000 2,000 Climbing FlightAware ADS-B
Tue 10:46:10 PM 40.7500 -74.3539 326° Northwest 301 346 10,700 1,600 Climbing FlightAware ADS-B
Tue 10:46:16 PM 40.7564 -74.3596 326° Northwest 311 358 10,800 1,135 Climbing FlightAware ADS-B
Tue 10:46:47 PM 40.7953 -74.3942 326° Northwest 343 395 11,400 1,200 Climbing FlightAware ADS-B
Tue 10:47:06 PM 40.8214 -74.4172 326° Northwest 360 414 11,800 1,161 Climbing FlightAware ADS-B
Tue 10:47:18 PM 40.8388 -74.4326 326° Northwest 370 426 12,000 1,116 Climbing FlightAware ADS-B
Tue 10:47:49 PM 40.8843 -74.4726 326° Northwest 393 452 12,600 1,082 Climbing FlightAware ADS-B
Tue 10:48:19 PM 40.9305 -74.5132 326° Northwest 392 451 13,100 984 Climbing FlightAware ADS-B
Tue 10:48:50 PM 40.9766 -74.5538 326° Northwest 396 456 13,600 1,108 Climbing FlightAware ADS-B
Tue 10:49:24 PM 41.0301 -74.6011 326° Northwest 414 476 14,300 1,569 Climbing FlightAware ADS-B
Tue 10:49:55 PM 41.0791 -74.6445 326° Northwest 417 480 15,300 2,087 Climbing FlightAware ADS-B
Tue 10:50:10 PM 41.1037 -74.6668 326° Northwest 416 479 15,900 2,750 Climbing FlightAware ADS-B
Tue 10:50:19 PM 41.1171 -74.6826 318° Northwest 410 472 16,400 2,727 Climbing FlightAware ADS-B
Tue 10:50:32 PM 41.1320 -74.7057 311° West 404 465 16,900 2,250 Climbing FlightAware ADS-B
Tue 10:50:43 PM 41.1430 -74.7297 301° West 402 463 17,300 2,471 Climbing FlightAware ADS-B
Tue 10:50:49 PM 41.1477 -74.7435 294° West 399 459 17,600 3,167 Climbing FlightAware ADS-B
Tue 10:51:19 PM 41.1654 -74.8124 289° West 392 451 19,200 2,459 Climbing FlightAware ADS-B
Tue 10:51:50 PM 41.1828 -74.8834 288° West 407 468 20,100 2,032 Climbing FlightAware ADS-B
Tue 10:52:21 PM 41.2012 -74.9577 288° West 412 474 21,300 2,164 Climbing FlightAware ADS-B
Tue 10:52:51 PM 41.2192 -75.0308 288° West 421 484 22,300 2,300 Climbing FlightAware ADS-B
Tue 10:53:21 PM 41.2376 -75.1049 288° West 420 483 23,600 2,615 Climbing FlightAware ADS-B
Tue 10:53:30 PM 41.2431 -75.1263 289° West 419 482 24,000 2,700 Climbing FlightAware ADS-B
Tue 10:53:41 PM 41.2519 -75.1532 294° West 418 481 24,500 3,000 Climbing FlightAware ADS-B
Tue 10:53:50 PM 41.2600 -75.1719 300° West 417 480 25,000 3,200 Climbing FlightAware ADS-B
Tue 10:53:56 PM 41.2671 -75.1853 305° West 417 480 25,300 2,526 Climbing FlightAware ADS-B
Tue 10:54:09 PM 41.2831 -75.2096 311° West 417 480 25,800 2,791 Climbing FlightAware ADS-B
Tue 10:54:39 PM 41.3280 -75.2601 320° Northwest 411 473 27,300 2,941 Climbing FlightAware ADS-B
Tue 10:55:00 PM 41.3585 -75.2937 320° Northwest 404 465 28,300 2,710 Climbing FlightAware ADS-B
Tue 10:55:10 PM 41.3713 -75.3109 315° West 400 460 28,700 2,600 Climbing FlightAware ADS-B
Tue 10:55:30 PM 41.3943 -75.3504 308° West 395 455 29,600 1,615 Climbing FlightAware ADS-B
Tue 10:56:02 PM 41.4264 -75.4127 305° West 396 456 30,100 857 Climbing FlightAware ADS-B
Tue 10:56:33 PM 41.4592 -75.4768 304° West 412 474 30,500 677 Climbing FlightAware ADS-B
Tue 10:57:04 PM 41.4940 -75.5442 305° West 428 493 30,800 787 Climbing FlightAware ADS-B
Tue 10:57:34 PM 41.5281 -75.6110 304° West 435 501 31,300 1,364 Climbing FlightAware ADS-B
Tue 10:58:10 PM 41.5685 -75.6898 304° West 430 495 32,300 1,754 Climbing FlightAware ADS-B
Tue 10:58:39 PM 41.6008 -75.7534 304° West 422 486 33,200 1,857 Climbing FlightAware ADS-B
Tue 10:58:52 PM 41.6140 -75.7834 300° West 419 482 33,600 1,909 Climbing FlightAware ADS-B
Tue 10:59:01 PM 41.6209 -75.8025 296° West 417 480 33,900 1,750 Climbing FlightAware ADS-B
Tue 10:59:16 PM 41.6315 -75.8399 291° West 414 476 34,300 1,615 Climbing FlightAware ADS-B
Tue 10:59:27 PM 41.6371 -75.8671 285° West 413 475 34,600 1,800 Climbing FlightAware ADS-B
Tue 10:59:36 PM 41.6401 -75.8887 281° West 413 475 34,900 1,692 Climbing FlightAware ADS-B
Tue 11:00:06 PM 41.6482 -75.9645 278° West 406 467 35,700 1,100 Climbing FlightAware ADS-B
Tue 11:00:36 PM 41.6559 -76.0385 278° West 396 456 36,000 295 Climbing FlightAware ADS-B
Tue 11:01:07 PM 41.6635 -76.1128 278° West 393 452 36,000  Level FlightAware ADS-B
Tue 11:01:40 PM 41.6717 -76.1939 278° West 397 457 36,000  Level FlightAware ADS-B
Tue 11:02:12 PM 41.6794 -76.2714 278° West 401 461 36,000  Level FlightAware ADS-B
Tue 11:02:55 PM 41.6900 -76.3785 278° West 402 463 36,000  Level FlightAware ADS-B
Tue 11:03:26 PM 41.6973 -76.4537 277° West 403 464 36,000  Level FlightAware ADS-B
Tue 11:03:59 PM 41.7052 -76.5371 277° West 404 465 36,000  Level FlightAware ADS-B
Tue 11:04:31 PM 41.7122 -76.6166 277° West 404 465 36,000  Level FlightAware ADS-B
Tue 11:05:02 PM 41.7189 -76.6931 277° West 404 465 36,000  Level FlightAware ADS-B
Tue 11:06:11 PM 41.7330 -76.8550 277° West 404 465 36,000  Level FlightAware ADS-B
Tue 11:06:46 PM 41.7410 -76.9420 277° West 405 466 36,000  Level FlightAware ADS-B
Tue 11:07:21 PM 41.7490 -77.0270 277° West 405 466 36,000  Level FlightAware ADS-B
Tue 11:07:56 PM 41.7570 -77.1150 277° West 403 464 36,000  Level FlightAware ADS-B
Tue 11:08:31 PM 41.7650 -77.2040 277° West 402 463 36,000  Level FlightAware ADS-B
Tue 11:09:01 PM 41.7720 -77.2790 277° West 401 461 36,000  Level FlightAware ADS-B
Tue 11:09:41 PM 41.7810 -77.3780 277° West 401 461 36,000  Level FlightAware ADS-B
Tue 11:10:17 PM 41.7880 -77.4650 276° West 400 460 36,000  Level FlightAware ADS-B
Tue 11:10:51 PM 41.7960 -77.5510 277° West 400 460 36,000  Level FlightAware ADS-B
Tue 11:11:27 PM 41.8040 -77.6440 277° West 400 460 36,000  Level FlightAware ADS-B
Tue 11:12:01 PM 41.8110 -77.7320 276° West 400 460 36,000  Level FlightAware ADS-B
Tue 11:12:37 PM 41.8190 -77.8210 277° West 401 461 36,000  Level FlightAware ADS-B
Tue 11:13:16 PM 41.8260 -77.9120 276° West 402 463 36,000  Level FlightAware ADS-B
Tue 11:13:51 PM 41.8340 -77.9980 277° West 402 463 36,000  Level FlightAware ADS-B
Tue 11:14:26 PM 41.8410 -78.0840 276° West 403 464 36,000  Level FlightAware ADS-B
Tue 11:15:01 PM 41.8480 -78.1680 276° West 403 464 36,000  Level FlightAware ADS-B
Tue 11:15:41 PM 41.8560 -78.2690 276° West 404 465 36,000  Level FlightAware ADS-B
Tue 11:16:13 PM 41.8620 -78.3430 276° West 403 464 36,000  Level FlightAware ADS-B
Tue 11:16:46 PM 41.8690 -78.4340 276° West 403 464 36,000  Level FlightAware ADS-B
Tue 11:17:21 PM 41.8760 -78.5200 276° West 404 465 36,000  Level FlightAware ADS-B
Tue 11:17:56 PM 41.8830 -78.6080 276° West 404 465 36,000  Level FlightAware ADS-B
Tue 11:18:31 PM 41.8890 -78.6920 276° West 405 466 36,000  Level FlightAware ADS-B
Tue 11:19:11 PM 41.8960 -78.7860 276° West 405 466 36,000  Level FlightAware ADS-B
Tue 11:19:41 PM 41.9030 -78.8700 276° West 406 467 36,000  Level FlightAware ADS-B
Tue 11:19:56 PM 41.9060 -78.9080 276° West 406 467 36,000  Level FlightAware ADS-B
Tue 11:21:20 PM 41.9180 -79.0770 276° West 407 468 36,000  Level FlightAware ADS-B
Tue 11:22:06 PM 41.9290 -79.2320 276° West 408 470 36,000  Level FlightAware ADS-B
Tue 11:22:40 PM 41.9360 -79.3310 275° West 409 471 36,000  Level FlightAware ADS-B
Tue 11:23:30 PM 41.9440 -79.4480 275° West 409 471 36,000  Level FlightAware ADS-B
Tue 11:24:02 PM 41.9500 -79.5360 275° West 409 471 36,000  Level FlightAware ADS-B
Tue 11:24:39 PM 41.9560 -79.6320 275° West 410 472 36,000  Level FlightAware ADS-B
Tue 11:25:15 PM 41.9620 -79.7220 275° West 410 472 36,000  Level FlightAware ADS-B
Tue 11:25:49 PM 41.9680 -79.8060 276° West 411 473 36,000  Level FlightAware ADS-B
Tue 11:26:23 PM 41.9740 -79.8960 275° West 411 473 36,000  Level FlightAware ADS-B
Tue 11:27:00 PM 41.9800 -79.9910 275° West 411 473 36,000  Level FlightAware ADS-B
Tue 11:27:35 PM 41.9860 -80.0790 275° West 411 473 36,000  Level FlightAware ADS-B
Tue 11:28:11 PM 41.9910 -80.1630 275° West 411 473 36,000  Level FlightAware ADS-B
Tue 11:28:51 PM 41.9980 -80.2640 275° West 412 474 36,000  Level FlightAware ADS-B
Tue 11:29:26 PM 42.0040 -80.3490 275° West 413 475 36,000  Level FlightAware ADS-B
Tue 11:30:01 PM 42.0090 -80.4430 274° West 413 475 36,000  Level FlightAware ADS-B
Tue 11:30:36 PM 42.0150 -80.5330 275° West 415 478 36,000  Level FlightAware ADS-B
Tue 11:31:06 PM 42.0200 -80.6090 275° West 415 478 36,000  Level FlightAware ADS-B
Tue 11:31:46 PM 42.0260 -80.7120 275° West 415 478 36,000  Level FlightAware ADS-B
Tue 11:32:21 PM 42.0310 -80.8010 274° West 415 478 36,000  Level FlightAware ADS-B
Tue 11:32:56 PM 42.0360 -80.8940 274° West 415 478 36,000  Level FlightAware ADS-B
Tue 11:33:31 PM 42.0410 -80.9760 275° West 416 479 36,000  Level FlightAware ADS-B
Tue 11:34:06 PM 42.0460 -81.0750 274° West 416 479 36,000  Level FlightAware ADS-B
Tue 11:34:41 PM 42.0510 -81.1630 274° West 416 479 36,000  Level FlightAware ADS-B
Tue 11:35:16 PM 42.0560 -81.2530 274° West 417 480 36,000  Level FlightAware ADS-B
Tue 11:35:51 PM 42.0600 -81.3410 274° West 418 481 36,000  Level FlightAware ADS-B
Tue 11:36:27 PM 42.0660 -81.4490 274° West 419 482 36,000  Level FlightAware ADS-B
Tue 11:37:02 PM 42.0700 -81.5420 273° West 419 482 36,000  Level FlightAware ADS-B
Tue 11:37:38 PM 42.0750 -81.6360 274° West 420 483 36,000  Level FlightAware ADS-B
Tue 11:38:15 PM 42.0800 -81.7310 274° West 420 483 36,000  Level FlightAware ADS-B
Tue 11:38:47 PM 42.0840 -81.8170 274° West 421 484 36,000  Level FlightAware ADS-B
Tue 11:39:23 PM 42.0890 -81.9110 274° West 421 484 36,000  Level FlightAware ADS-B
Tue 11:39:59 PM 42.0930 -81.9960 274° West 422 486 36,000  Level FlightAware ADS-B
Tue 11:40:48 PM 42.0990 -82.1330 273° West 423 487 36,000  Level FlightAware ADS-B
Tue 11:41:25 PM 42.1030 -82.2290 273° West 423 487 36,000  Level FlightAware ADS-B
Tue 11:42:16 PM 42.1090 -82.3660 273° West 423 487 36,000  Level FlightAware ADS-B
Tue 11:42:52 PM 42.1140 -82.4640 274° West 423 487 36,000  Level FlightAware ADS-B
Tue 11:43:24 PM 42.1170 -82.5490 273° West 423 487 36,000  Level FlightAware ADS-B
Tue 11:43:56 PM 42.1210 -82.6320 274° West 424 488 36,000  Level FlightAware ADS-B
Tue 11:44:36 PM 42.1250 -82.7330 273° West 425 489 36,000  Level FlightAware ADS-B
Tue 11:45:08 PM 42.1280 -82.8220 273° West 426 490 36,000  Level FlightAware ADS-B
Tue 11:45:44 PM 42.1320 -82.9180 273° West 426 490 36,000  Level FlightAware ADS-B
Tue 11:46:21 PM 42.1350 -83.0150 272° West 426 490 36,000  Level FlightAware ADS-B
Tue 11:46:56 PM 42.1390 -83.1110 273° West 427 491 36,000  Level FlightAware ADS-B
Tue 11:47:32 PM 42.1420 -83.2070 272° West 428 493 36,000  Level FlightAware ADS-B
Tue 11:48:04 PM 42.1440 -83.2910 272° West 428 493 36,000  Level FlightAware ADS-B
Tue 11:48:41 PM 42.1480 -83.3900 273° West 426 490 36,000  Level FlightAware ADS-B
Tue 11:49:16 PM 42.1520 -83.4860 273° West 426 490 36,000  Level FlightAware ADS-B
Tue 11:49:52 PM 42.1560 -83.5810 273° West 425 489 36,000  Level FlightAware ADS-B
Tue 11:50:26 PM 42.1600 -83.6720 273° West 424 488 36,000  Level FlightAware ADS-B
Tue 11:51:00 PM 42.1630 -83.7610 273° West 424 488 36,000  Level FlightAware ADS-B
Tue 11:51:36 PM 42.1660 -83.8560 272° West 423 487 36,000  Level FlightAware ADS-B
Tue 11:52:08 PM 42.1690 -83.9400 273° West 423 487 36,000  Level FlightAware ADS-B
Tue 11:52:44 PM 42.1720 -84.0370 272° West 424 488 36,000  Level FlightAware ADS-B
Tue 11:53:22 PM 42.1750 -84.1380 272° West 426 490 36,000  Level FlightAware ADS-B
Tue 11:53:54 PM 42.1770 -84.2220 272° West 427 491 36,000  Level FlightAware ADS-B
Tue 11:54:31 PM 42.1800 -84.3240 272° West 428 493 36,000  Level FlightAware ADS-B
Tue 11:55:03 PM 42.1820 -84.4100 272° West 428 493 36,000  Level FlightAware ADS-B
Tue 11:55:39 PM 42.1840 -84.5020 272° West 429 494 36,000  Level FlightAware ADS-B
Tue 11:56:16 PM 42.1870 -84.6030 272° West 429 494 36,000  Level FlightAware ADS-B
Tue 11:56:50 PM 42.1890 -84.6930 272° West 429 494 36,000  Level FlightAware ADS-B
Tue 11:57:25 PM 42.1910 -84.7900 272° West 430 495 36,000  Level FlightAware ADS-B
Tue 11:58:01 PM 42.1920 -84.8900 271° West 431 496 36,000  Level FlightAware ADS-B
Tue 11:58:33 PM 42.1940 -84.9760 272° West 431 496 36,000  Level FlightAware ADS-B
Tue 11:59:10 PM 42.1950 -85.0730 271° West 432 497 36,000  Level FlightAware ADS-B
Tue 11:59:47 PM 42.1970 -85.1730 272° West 433 498 36,000  Level FlightAware ADS-B
Wed 12:00:21 AM 42.1990 -85.2680 272° West 434 499 36,000  Level FlightAware ADS-B
Wed 12:00:57 AM 42.2010 -85.3660 272° West 435 501 36,000  Level FlightAware ADS-B
Wed 12:01:33 AM 42.2030 -85.4640 272° West 434 499 36,000  Level FlightAware ADS-B
Wed 12:02:05 AM 42.2040 -85.5480 271° West 435 501 36,000  Level FlightAware ADS-B
Wed 12:02:39 AM 42.2060 -85.6440 272° West 435 501 36,000  Level FlightAware ADS-B
Wed 12:03:15 AM 42.2070 -85.7420 271° West 436 502 36,000  Level FlightAware ADS-B
Wed 12:03:52 AM 42.2090 -85.8420 272° West 436 502 36,000  Level FlightAware ADS-B
Wed 12:04:27 AM 42.2100 -85.9390 271° West 438 504 36,000  Level FlightAware ADS-B
Wed 12:05:01 AM 42.2110 -86.0330 271° West 439 505 36,000  Level FlightAware ADS-B
Wed 12:05:37 AM 42.2120 -86.1300 271° West 439 505 36,000  Level FlightAware ADS-B
Wed 12:06:09 AM 42.2130 -86.2200 271° West 439 505 36,000  Level FlightAware ADS-B
Wed 12:06:45 AM 42.2140 -86.3200 271° West 438 504 36,000  Level FlightAware ADS-B
Wed 12:07:21 AM 42.2140 -86.4200 270° West 436 502 36,000  Level FlightAware ADS-B
Wed 12:07:57 AM 42.2150 -86.5170 271° West 435 501 36,000  Level FlightAware ADS-B
Wed 12:08:29 AM 42.2150 -86.6060 270° West 434 499 36,000  Level FlightAware ADS-B
Wed 12:09:07 AM 42.2160 -86.7080 271° West 433 498 36,000  Level FlightAware ADS-B
Wed 12:09:39 AM 42.2160 -86.7970 270° West 432 497 36,000  Level FlightAware ADS-B
Wed 12:10:15 AM 42.2170 -86.8940 271° West 433 498 36,000  Level FlightAware ADS-B
Wed 12:10:53 AM 42.2170 -86.9970 270° West 433 498 36,000  Level FlightAware ADS-B
Wed 12:11:25 AM 42.2170 -87.0850 270° West 434 499 36,000 -273 Level FlightAware ADS-B
Wed 12:11:59 AM 42.2180 -87.1750 271° West 435 501 35,700 -1,588 Descending FlightAware ADS-B
Wed 12:12:33 AM 42.2180 -87.2660 270° West 437 503 34,200 -3,333 Descending FlightAware ADS-B
Wed 12:13:11 AM 42.2180 -87.3690 270° West 448 516 31,700 -4,250 Descending FlightAware ADS-B
Wed 12:13:45 AM 42.2180 -87.4710 270° West 461 531 29,100 -4,667 Descending FlightAware ADS-B
Wed 12:14:23 AM 42.2170 -87.5770 269° West 476 548 26,100 -4,286 Descending FlightAware ADS-B
Wed 12:14:55 AM 42.2170 -87.6740 270° West 472 543 24,100 -3,176 Descending FlightAware ADS-B
Wed 12:15:31 AM 42.2170 -87.7840 270° West 453 521 22,500 -2,667 Descending FlightAware ADS-B
Wed 12:16:07 AM 42.2160 -87.8770 269° West 441 507 20,900 -3,000 Descending FlightAware ADS-B
Wed 12:16:43 AM 42.2150 -87.9780 269° West 431 496 18,900 -3,273 Descending FlightAware ADS-B
Wed 12:17:13 AM 42.2150 -88.0630 270° West 422 486 17,300 -2,559 Descending FlightAware ADS-B
Wed 12:17:51 AM 42.2140 -88.1630 269° West 415 478 16,000 -1,397 Descending FlightAware ADS-B
Wed 12:18:26 AM 42.2140 -88.2510 270° West 403 464 15,600 -1,859 Descending FlightAware ADS-B
Wed 12:19:02 AM 42.2130 -88.3400 269° West 396 456 13,800 -3,088 Descending FlightAware ADS-B
Wed 12:19:34 AM 42.2120 -88.4210 269° West 393 452 12,100 -2,366 Descending FlightAware ADS-B
Wed 12:20:13 AM 42.2110 -88.4910 269° West 384 442 11,000 -1,026 Descending FlightAware ADS-B
Wed 12:20:50 AM 42.2090 -88.5950 269° West 328 377 10,800 -273 Descending FlightAware ADS-B
Wed 12:21:19 AM 42.2090 -88.6490 270° West 300 345 10,700 -716 Descending FlightAware ADS-B
Wed 12:21:57 AM 42.2080 -88.7230 269° West 286 329 10,000 -1,111 Descending FlightAware ADS-B
Wed 12:22:13 AM 42.2080 -88.7510 270° West 282 325 9,700 -1,200 Descending FlightAware ADS-B
Wed 12:22:32 AM 42.2070 -88.7850 268° West 279 321 9,300 -1,355 Descending FlightAware ADS-B
Wed 12:22:44 AM 42.2070 -88.8060 270° West 277 319 9,000 -1,459 Descending FlightAware ADS-B
Wed 12:23:09 AM 42.2070 -88.8480 270° West 277 319 8,400 -1,579 Descending FlightAware ADS-B
Wed 12:23:22 AM 42.2060 -88.8720 267° West 278 320 8,000 -1,636 Descending FlightAware ADS-B
Wed 12:23:42 AM 42.2050 -88.9070 268° West 279 321 7,500 -1,500 Descending FlightAware ADS-B
Wed 12:23:50 AM 42.2020 -88.9200 253° West 277 319 7,300 -1,500 Descending FlightAware ADS-B
Wed 12:23:58 AM 42.1970 -88.9310 238° Southwest 275 316 7,100 -1,241 Descending FlightAware ADS-B
Wed 12:24:19 AM 42.1800 -88.9590 231° Southwest 272 313 6,700 -1,317 Descending FlightAware ADS-B
Wed 12:24:39 AM 42.1640 -88.9850 230° Southwest 270 311 6,200 -1,350 Descending FlightAware ADS-B
Wed 12:24:59 AM 42.1490 -89.0110 232° Southwest 267 307 5,800 -1,200 Descending FlightAware ADS-B
Wed 12:25:19 AM 42.1330 -89.0370 230° Southwest 265 305 5,400 -1,227 Descending FlightAware ADS-B
Wed 12:25:43 AM 42.1150 -89.0670 231° Southwest 264 304 4,900 -1,364 Descending FlightAware ADS-B
Wed 12:26:03 AM 42.0990 -89.0930 230° Southwest 264 304 4,400 -1,500 Descending FlightAware ADS-B
Wed 12:26:15 AM 42.0900 -89.1080 231° Southwest 263 303 4,100 -1,273 Descending FlightAware ADS-B
Wed 12:26:36 AM 42.0730 -89.1360 231° Southwest 259 298 3,700 -1,000 Descending FlightAware ADS-B
Wed 12:26:45 AM 42.0680 -89.1470 239° Southwest 258 297 3,600 -1,091 Descending FlightAware ADS-B
Wed 12:26:58 AM 42.0620 -89.1670 248° West 256 295 3,300 -1,167 Descending FlightAware ADS-B
Wed 12:27:21 AM 42.0540 -89.2010 252° West 252 290 2,900 -837 Descending FlightAware ADS-B
Wed 12:27:41 AM 42.0480 -89.2300 254° West 244 281 2,700 -585 Descending FlightAware ADS-B
Wed 12:28:02 AM 42.0420 -89.2620 256° West 237 273 2,500 -563 Descending FlightAware ADS-B
Wed 12:28:13 AM 42.0400 -89.2740 257° West 239 275 2,400 -176 Descending FlightAware ADS-B
Wed 12:28:36 AM 42.0510 -89.3050 296° West 253 291 2,400  Level FlightAware ADS-B
Wed 12:28:44 AM 42.0600 -89.3130 327° Northwest 255 293 2,400  Level FlightAware ADS-B
Wed 12:28:48 AM 42.0640 -89.3160 331° Northwest 255 293 2,400  Level FlightAware ADS-B
Wed 12:29:00 AM 42.0780 -89.3200 348° North 257 296 2,400 -261 Level FlightAware ADS-B
Wed 12:29:11 AM 42.0910 -89.3220 353° North 256 295 2,300  Descending FlightAware ADS-B
Wed 12:29:31 AM 42.1140 -89.3100 21° North 247 284 2,400  Climbing FlightAware ADS-B
Wed 12:29:48 AM 42.1290 -89.2920 42° Northeast 236 272 2,300 -240 Descending FlightAware ADS-B
Wed 12:29:56 AM 42.1330 -89.2820 62° Northeast 225 259 2,300 214 Level FlightAware ADS-B
Wed 12:30:16 AM 42.1430 -89.2590 60° Northeast 207 238 2,400  Climbing FlightAware ADS-B
Wed 12:30:36 AM 42.1500 -89.2370 67° East 187 215 2,300 -300 Descending FlightAware ADS-B
Wed 12:30:56 AM 42.1570 -89.2170 65° Northeast 170 196 2,200 -514 Descending FlightAware ADS-B
Wed 12:31:11 AM 42.1620 -89.2030 64° Northeast 157 181 2,000 -833 Descending FlightAware ADS-B
Wed 12:31:32 AM 42.1680 -89.1860 65° Northeast 132 152 1,700 -811 Descending FlightAware ADS-B
Wed 12:31:48 AM 42.1720 -89.1750 64° Northeast 120 138 1,500 -706 Descending FlightAware ADS-B
Wed 12:32:06 AM 42.1760 -89.1620 67° East 119 137 1,300 -545 Descending FlightAware ADS-B
Wed 12:32:21 AM 42.1790 -89.1520 68° East 119 137 1,200 -514 Descending FlightAware ADS-B
Wed 12:32:41 AM 42.1840 -89.1390 63° Northeast 117 135 1,000 -632 Descending FlightAware ADS-B
Wed 12:32:59 AM 42.1880 -89.1270 66° East 118 136 800 -333 Descending FlightAware ADS-B
Wed 12:33:35 AM 42.1950 -89.1070 65° Northeast 118 136 700 -167 Descending FlightAware ADS-B

Login

Don't have an account? Register now (free) for customized features, flight alerts, and more!